createdAt,value
2022-08-21T00:02:03.628Z,1.50
2022-08-21T00:04:31.470Z,1.65
2022-08-21T00:07:00.685Z,1.65
2022-08-21T00:09:27.510Z,1.45
2022-08-21T00:11:54.247Z,1.70
2022-08-21T00:14:20.959Z,1.60
2022-08-21T00:16:47.691Z,1.70
2022-08-21T00:19:14.376Z,1.60
2022-08-21T00:21:41.249Z,1.52
2022-08-21T00:24:11.945Z,1.42
2022-08-21T00:26:38.920Z,1.48
2022-08-21T00:29:05.669Z,1.50
2022-08-21T00:31:32.446Z,1.75
2022-08-21T00:34:00.953Z,1.70
2022-08-21T00:36:28.570Z,1.60
2022-08-21T00:38:55.424Z,1.70
2022-08-21T00:41:38.583Z,1.55
2022-08-21T00:44:08.241Z,1.45
2022-08-21T00:46:35.409Z,1.73
2022-08-21T00:49:02.191Z,1.70
2022-08-21T00:51:56.939Z,1.90
2022-08-21T00:54:26.611Z,1.50
2022-08-21T00:57:00.651Z,1.90
2022-08-21T00:59:30.351Z,2.97
2022-08-21T01:01:57.212Z,3.50
2022-08-21T01:04:24.323Z,3.83
2022-08-21T01:06:52.384Z,3.53
2022-08-21T01:09:19.908Z,3.60
2022-08-21T01:11:46.883Z,2.90
2022-08-21T01:14:15.330Z,3.22
2022-08-21T01:16:45.695Z,2.03
2022-08-21T01:19:13.917Z,2.10
2022-08-21T01:21:40.936Z,2.88
2022-08-21T01:24:07.976Z,1.70
2022-08-21T01:26:36.940Z,1.48
2022-08-21T01:29:28.888Z,1.40
2022-08-21T01:31:55.641Z,1.77
2022-08-21T01:34:22.344Z,1.67
2022-08-21T01:36:49.431Z,1.55
2022-08-21T01:39:16.612Z,1.65
2022-08-21T01:41:44.072Z,1.83
2022-08-21T01:44:10.838Z,1.40
2022-08-21T01:46:37.690Z,1.38
2022-08-21T01:49:05.541Z,1.15
2022-08-21T01:51:32.458Z,1.20
2022-08-21T01:53:59.590Z,1.10
2022-08-21T01:56:27.672Z,1.30
2022-08-21T01:58:54.512Z,1.40
2022-08-21T02:01:21.308Z,1.17
2022-08-21T02:03:48.478Z,1.52
2022-08-21T02:06:18.503Z,1.17
2022-08-21T02:08:46.468Z,1.23
2022-08-21T02:11:13.636Z,1.10
2022-08-21T02:13:40.671Z,1.13
2022-08-21T02:16:08.707Z,1.40
2022-08-21T02:18:36.202Z,1.27
2022-08-21T02:21:04.419Z,1.00
2022-08-21T02:23:31.219Z,0.98
2022-08-21T02:25:59.791Z,1.15
2022-08-21T02:28:27.645Z,1.30
2022-08-21T02:30:56.760Z,1.13
2022-08-21T02:33:24.156Z,0.90
2022-08-21T02:35:51.499Z,1.00
2022-08-21T02:38:21.807Z,1.05
2022-08-21T02:40:51.304Z,1.10
2022-08-21T02:43:19.376Z,1.20
2022-08-21T02:45:47.204Z,1.27
2022-08-21T02:48:17.692Z,1.05
2022-08-21T02:51:11.781Z,1.23
2022-08-21T02:53:39.599Z,1.35
2022-08-21T02:56:09.402Z,1.25
2022-08-21T02:58:39.588Z,0.98
2022-08-21T03:01:10.333Z,1.75
2022-08-21T03:03:42.996Z,1.67
2022-08-21T03:06:11.191Z,1.40
2022-08-21T03:08:38.529Z,1.90
2022-08-21T03:11:05.840Z,2.38
2022-08-21T03:13:34.537Z,2.00
2022-08-21T03:16:01.985Z,2.20
2022-08-21T03:18:32.041Z,1.83
2022-08-21T03:20:58.737Z,1.85
2022-08-21T03:23:25.554Z,1.77
2022-08-21T03:25:59.784Z,1.90
2022-08-21T03:28:26.604Z,2.10
2022-08-21T03:30:54.331Z,2.47
2022-08-21T03:33:23.276Z,2.40
2022-08-21T03:36:01.556Z,2.53
2022-08-21T03:38:30.111Z,2.60
2022-08-21T03:40:56.843Z,2.40
2022-08-21T03:43:23.627Z,3.03
2022-08-21T03:45:50.491Z,2.72
2022-08-21T03:48:19.791Z,3.20
2022-08-21T03:50:48.151Z,2.97
2022-08-21T03:53:17.533Z,2.78
2022-08-21T03:55:47.279Z,3.00
2022-08-21T03:58:17.509Z,2.70
2022-08-21T04:00:46.664Z,2.50
2022-08-21T04:03:13.656Z,2.22
2022-08-21T04:05:41.270Z,2.60
2022-08-21T04:08:08.522Z,2.38
2022-08-21T04:10:37.582Z,2.58
2022-08-21T04:13:05.466Z,2.40
2022-08-21T04:15:32.269Z,2.53
2022-08-21T04:17:59.911Z,2.83
2022-08-21T04:20:27.205Z,3.00
2022-08-21T04:22:54.580Z,3.42
2022-08-21T04:25:23.389Z,3.25
2022-08-21T04:27:50.355Z,2.90
2022-08-21T04:30:17.591Z,3.22
2022-08-21T04:32:49.909Z,3.00
2022-08-21T04:35:22.026Z,2.40
2022-08-21T04:37:48.940Z,2.10
2022-08-21T04:40:18.604Z,2.20
2022-08-21T04:42:50.356Z,2.35
2022-08-21T04:45:22.983Z,2.05
2022-08-21T04:47:53.769Z,2.17
2022-08-21T04:50:23.426Z,1.77
2022-08-21T04:52:50.110Z,2.00
2022-08-21T04:55:19.242Z,2.25
2022-08-21T04:57:49.214Z,1.80
2022-08-21T05:00:19.623Z,1.60
2022-08-21T05:02:48.695Z,1.55
2022-08-21T05:05:17.057Z,1.70
2022-08-21T05:07:44.777Z,1.80
2022-08-21T05:10:12.558Z,1.80
2022-08-21T05:12:42.948Z,1.80
2022-08-21T05:15:13.407Z,1.75
2022-08-21T05:17:41.954Z,1.70
2022-08-21T05:20:10.524Z,1.50
2022-08-21T05:22:37.452Z,1.67
2022-08-21T05:25:09.694Z,1.55
2022-08-21T05:27:39.056Z,1.88
2022-08-21T05:30:08.607Z,1.50
2022-08-21T05:32:36.158Z,1.80
2022-08-21T05:35:05.166Z,1.75
2022-08-21T05:37:32.055Z,1.42
2022-08-21T05:40:20.430Z,1.60
2022-08-21T05:42:54.507Z,1.35
2022-08-21T05:45:41.563Z,1.60
2022-08-21T05:48:11.654Z,1.50
2022-08-21T05:50:39.096Z,1.45
2022-08-21T05:53:07.727Z,1.50
2022-08-21T05:55:36.350Z,1.48
2022-08-21T05:58:03.604Z,1.75
2022-08-21T06:00:30.830Z,1.50
2022-08-21T06:02:57.784Z,1.42
2022-08-21T06:05:36.671Z,1.65
2022-08-21T06:08:04.951Z,1.40
2022-08-21T06:10:32.211Z,1.48
2022-08-21T06:12:59.216Z,1.48
2022-08-21T06:15:26.440Z,1.33
2022-08-21T06:17:54.307Z,1.30
2022-08-21T06:20:21.677Z,1.38
2022-08-21T06:22:48.854Z,1.30
2022-08-21T06:25:16.115Z,1.30
2022-08-21T06:27:42.907Z,2.70
2022-08-21T06:30:10.684Z,1.45
2022-08-21T06:32:37.867Z,1.35
2022-08-21T06:35:06.459Z,2.50
2022-08-21T06:37:34.240Z,1.75
2022-08-21T06:40:01.194Z,1.40
2022-08-21T06:42:29.127Z,1.40
2022-08-21T06:44:57.776Z,1.20
2022-08-21T06:47:24.584Z,1.30
2022-08-21T06:49:51.259Z,1.60
2022-08-21T06:52:18.195Z,1.35
2022-08-21T06:54:45.082Z,1.40
2022-08-21T06:57:11.925Z,1.13
2022-08-21T06:59:38.818Z,1.33
2022-08-21T07:02:05.650Z,1.20
2022-08-21T07:04:32.412Z,1.17
2022-08-21T07:06:59.385Z,1.08
2022-08-21T07:09:26.583Z,1.10
2022-08-21T07:11:55.912Z,0.98
2022-08-21T07:14:23.128Z,1.23
2022-08-21T07:16:51.777Z,0.90
2022-08-21T07:19:18.957Z,1.20
2022-08-21T07:21:46.132Z,1.10
2022-08-21T07:24:13.675Z,0.95
2022-08-21T07:26:41.256Z,1.38
2022-08-21T07:29:08.064Z,1.20
2022-08-21T07:31:34.860Z,1.13
2022-08-21T07:34:01.702Z,1.48
2022-08-21T07:36:28.864Z,1.63
2022-08-21T07:38:55.685Z,1.15
2022-08-21T07:41:26.267Z,1.10
2022-08-21T07:43:53.356Z,1.10
2022-08-21T07:46:20.653Z,1.23
2022-08-21T07:48:47.861Z,1.02
2022-08-21T07:51:17.634Z,0.90
2022-08-21T07:53:50.853Z,1.27
2022-08-21T07:56:18.047Z,1.20
2022-08-21T07:58:45.266Z,1.30
2022-08-21T08:01:12.544Z,1.20
2022-08-21T08:03:39.936Z,1.00
2022-08-21T08:06:09.546Z,1.08
2022-08-21T08:08:36.734Z,1.10
2022-08-21T08:11:03.630Z,1.38
2022-08-21T08:13:30.592Z,1.10
2022-08-21T08:15:57.582Z,1.15
2022-08-21T08:18:24.744Z,1.13
2022-08-21T08:20:51.568Z,1.02
2022-08-21T08:23:18.808Z,1.30
2022-08-21T08:25:45.575Z,1.38
2022-08-21T08:28:16.995Z,1.25
2022-08-21T08:30:46.398Z,1.20
2022-08-21T08:33:13.594Z,0.95
2022-08-21T08:35:41.338Z,1.10
2022-08-21T08:38:09.502Z,1.20
2022-08-21T08:40:46.946Z,1.40
2022-08-21T08:43:14.797Z,1.08
2022-08-21T08:45:47.484Z,1.20
2022-08-21T08:48:32.237Z,1.20
2022-08-21T08:51:03.769Z,1.20
2022-08-21T08:53:35.867Z,1.13
2022-08-21T08:56:04.827Z,1.15
2022-08-21T08:58:35.094Z,1.35
2022-08-21T09:01:02.942Z,1.20
2022-08-21T09:03:30.632Z,1.63
2022-08-21T09:06:08.376Z,1.40
2022-08-21T09:09:06.075Z,1.30
2022-08-21T09:11:50.860Z,1.30
2022-08-21T09:14:34.641Z,1.17
2022-08-21T09:17:24.867Z,1.20
2022-08-21T09:20:21.301Z,3.00
2022-08-21T09:23:17.601Z,1.30
2022-08-21T09:25:51.295Z,1.67
2022-08-21T09:28:18.024Z,1.67
2022-08-21T09:30:44.890Z,1.35
2022-08-21T09:33:14.473Z,1.77
2022-08-21T09:35:55.676Z,1.67
2022-08-21T09:38:28.593Z,1.52
2022-08-21T09:41:27.969Z,1.35
2022-08-21T09:43:55.895Z,1.45
2022-08-21T09:46:25.728Z,1.80
2022-08-21T09:48:55.460Z,1.80
2022-08-21T09:51:36.671Z,1.70
2022-08-21T09:54:06.493Z,1.50
2022-08-21T09:56:56.030Z,1.63
2022-08-21T09:59:37.076Z,1.75
2022-08-21T10:02:33.963Z,1.92
2022-08-21T10:05:27.926Z,1.65
2022-08-21T10:07:54.833Z,2.33
2022-08-21T10:10:29.231Z,1.75
2022-08-21T10:13:05.465Z,1.70
2022-08-21T10:16:09.776Z,2.00
2022-08-21T10:18:43.268Z,1.67
2022-08-21T10:21:13.137Z,1.75
2022-08-21T10:23:57.547Z,2.10
2022-08-21T10:26:52.969Z,1.70
2022-08-21T10:29:22.353Z,1.50
2022-08-21T10:32:01.084Z,1.40
2022-08-21T10:34:54.520Z,1.38
2022-08-21T10:37:48.449Z,1.35
2022-08-21T10:40:49.763Z,1.52
2022-08-21T10:43:38.109Z,1.58
2022-08-21T10:46:28.176Z,1.45
2022-08-21T10:48:58.008Z,1.42
2022-08-21T10:51:41.088Z,1.27
2022-08-21T10:54:28.585Z,1.40
2022-08-21T10:57:06.463Z,1.40
2022-08-21T10:59:56.316Z,1.40
2022-08-21T11:02:36.999Z,1.77
2022-08-21T11:05:11.407Z,1.40
2022-08-21T11:08:24.932Z,1.60
2022-08-21T11:11:19.311Z,1.27
2022-08-21T11:14:09.757Z,1.60
2022-08-21T11:16:46.650Z,1.50
2022-08-21T11:19:26.582Z,1.30
2022-08-21T11:22:25.338Z,1.20
2022-08-21T11:25:02.431Z,1.40
2022-08-21T11:27:52.159Z,1.30
2022-08-21T11:30:19.171Z,1.20
2022-08-21T11:33:09.124Z,1.38
2022-08-21T11:35:53.656Z,2.10
2022-08-21T11:38:33.750Z,1.80
2022-08-21T11:41:22.078Z,1.20
2022-08-21T11:43:51.658Z,1.70
2022-08-21T11:46:22.212Z,2.38
2022-08-21T11:49:27.224Z,2.08
2022-08-21T11:51:54.037Z,1.20
2022-08-21T11:54:32.615Z,1.27
2022-08-21T11:57:15.192Z,1.73
2022-08-21T12:00:01.675Z,1.35
2022-08-21T12:02:36.643Z,1.30
2022-08-21T12:07:45.251Z,1.30
2022-08-21T12:10:21.866Z,1.15
2022-08-21T12:12:49.033Z,1.20
2022-08-21T12:15:22.008Z,1.35
2022-08-21T12:17:59.181Z,1.98
2022-08-21T12:20:34.673Z,1.27
2022-08-21T12:23:26.352Z,1.40
2022-08-21T12:26:25.719Z,1.20
2022-08-21T12:29:03.721Z,1.42
2022-08-21T12:31:30.545Z,1.15
2022-08-21T12:34:01.557Z,1.05
2022-08-21T12:36:57.607Z,0.90
2022-08-21T12:39:28.110Z,0.93
2022-08-21T12:42:14.343Z,1.02
2022-08-21T12:44:46.141Z,1.65
2022-08-21T12:47:34.324Z,1.58
2022-08-21T12:50:10.436Z,1.10
2022-08-21T12:52:45.486Z,1.30
2022-08-21T12:55:16.789Z,1.08
2022-08-21T12:57:43.789Z,1.35
2022-08-21T13:00:14.175Z,1.02
2022-08-21T13:02:48.460Z,1.10
2022-08-21T13:05:21.354Z,0.93
2022-08-21T13:07:49.828Z,1.10
2022-08-21T13:10:25.258Z,1.20
2022-08-21T13:12:57.027Z,1.17
2022-08-21T13:15:33.083Z,0.93
2022-08-21T13:18:03.064Z,1.17
2022-08-21T13:20:38.988Z,1.00
2022-08-21T13:23:30.260Z,1.10
2022-08-21T13:25:57.702Z,1.00
2022-08-21T13:28:25.255Z,0.85
2022-08-21T13:30:55.437Z,1.10
2022-08-21T13:33:34.061Z,1.02
2022-08-21T13:36:14.726Z,1.00
2022-08-21T13:38:42.892Z,0.98
2022-08-21T13:41:14.100Z,1.05
2022-08-21T13:43:49.994Z,1.00
2022-08-21T13:46:18.902Z,1.20
2022-08-21T13:48:45.777Z,0.90
2022-08-21T13:51:12.877Z,1.10
2022-08-21T13:53:42.328Z,1.08
2022-08-21T13:56:09.331Z,1.30
2022-08-21T13:58:47.585Z,0.90
2022-08-21T14:01:54.271Z,1.00
2022-08-21T14:04:25.660Z,1.08
2022-08-21T14:06:53.584Z,1.13
2022-08-21T14:09:45.688Z,1.05
2022-08-21T14:12:25.070Z,1.20
2022-08-21T14:14:53.474Z,1.00
2022-08-21T14:17:34.226Z,0.95
2022-08-21T14:20:02.145Z,1.02
2022-08-21T14:22:42.325Z,1.42
2022-08-21T14:25:12.219Z,1.10
2022-08-21T14:27:49.758Z,0.90
2022-08-21T14:30:41.689Z,1.10
2022-08-21T14:33:13.434Z,1.00
2022-08-21T14:35:41.140Z,1.05
2022-08-21T14:38:20.498Z,1.15
2022-08-21T14:40:51.445Z,1.10
2022-08-21T14:43:20.050Z,1.00
2022-08-21T14:45:47.548Z,0.93
2022-08-21T14:48:14.715Z,1.10
2022-08-21T14:50:41.927Z,1.00
2022-08-21T14:53:11.155Z,0.95
2022-08-21T14:55:58.083Z,1.10
2022-08-21T14:58:25.646Z,0.93
2022-08-21T15:00:53.665Z,1.10
2022-08-21T15:03:22.960Z,0.95
2022-08-21T15:05:50.849Z,0.90
2022-08-21T15:08:18.456Z,1.30
2022-08-21T15:11:10.046Z,1.08
2022-08-21T15:13:33.973Z,1.08
2022-08-21T15:16:01.194Z,1.00
2022-08-21T15:18:29.945Z,1.10
2022-08-21T15:20:57.521Z,1.10
2022-08-21T15:23:24.469Z,0.90
2022-08-21T15:25:52.961Z,1.08
2022-08-21T15:28:21.212Z,0.98
2022-08-21T15:30:52.019Z,2.25
2022-08-21T15:33:19.894Z,0.93
2022-08-21T15:35:47.134Z,0.80
2022-08-21T15:38:14.764Z,1.10
2022-08-21T15:40:51.811Z,0.90
2022-08-21T15:43:31.379Z,1.00
2022-08-21T15:46:02.182Z,1.40
2022-08-21T15:48:29.725Z,1.00
2022-08-21T15:50:56.681Z,1.20
2022-08-21T15:53:24.075Z,1.15
2022-08-21T15:55:50.988Z,1.00
2022-08-21T15:58:20.851Z,0.98
2022-08-21T16:00:47.991Z,1.02
2022-08-21T16:03:18.884Z,0.93
2022-08-21T16:05:46.421Z,1.40
2022-08-21T16:08:13.493Z,1.10
2022-08-21T16:10:41.100Z,0.88
2022-08-21T16:13:17.713Z,0.80
2022-08-21T16:15:44.569Z,0.98
2022-08-21T16:18:11.667Z,1.10
2022-08-21T16:20:38.502Z,1.05
2022-08-21T16:23:05.720Z,1.10
2022-08-21T16:25:39.952Z,0.95
2022-08-21T16:30:39.795Z,1.17
2022-08-21T16:33:08.522Z,1.00
2022-08-21T16:35:35.274Z,0.90
2022-08-21T16:38:02.277Z,1.30
2022-08-21T16:40:29.685Z,0.85
2022-08-21T16:42:56.720Z,0.95
2022-08-21T16:45:23.821Z,1.17
2022-08-21T16:47:51.417Z,1.08
2022-08-21T16:50:22.315Z,0.90
2022-08-21T16:52:49.304Z,1.10
2022-08-21T16:55:16.779Z,1.00
2022-08-21T16:57:43.863Z,1.00
2022-08-21T17:00:13.116Z,1.30
2022-08-21T17:02:47.441Z,1.10
2022-08-21T17:05:15.594Z,1.00
2022-08-21T17:07:43.888Z,0.98
2022-08-21T17:10:13.321Z,0.98
2022-08-21T17:12:42.408Z,0.85
2022-08-21T17:15:21.179Z,0.88
2022-08-21T17:17:49.246Z,0.90
2022-08-21T17:20:16.722Z,1.17
2022-08-21T17:22:43.690Z,1.05
2022-08-21T17:25:10.530Z,1.05
2022-08-21T17:27:37.709Z,1.10
2022-08-21T17:30:07.176Z,1.00
2022-08-21T17:32:34.232Z,1.02
2022-08-21T17:35:01.047Z,1.00
2022-08-21T17:37:29.448Z,0.98
2022-08-21T17:39:56.977Z,1.08
2022-08-21T17:42:25.151Z,1.20
2022-08-21T17:44:52.599Z,1.20
2022-08-21T17:47:19.634Z,1.33
2022-08-21T17:49:46.500Z,1.40
2022-08-21T17:52:13.301Z,1.20
2022-08-21T17:54:41.188Z,1.20
2022-08-21T17:57:18.386Z,0.90
2022-08-21T17:59:45.433Z,1.92
2022-08-21T18:02:19.725Z,1.00
2022-08-21T18:04:50.424Z,1.00
2022-08-21T18:07:32.219Z,1.40
2022-08-21T18:10:05.110Z,1.02
2022-08-21T18:12:33.058Z,1.40
2022-08-21T18:15:01.661Z,1.27
2022-08-21T18:17:30.304Z,1.00
2022-08-21T18:19:59.385Z,1.25
2022-08-21T18:22:26.873Z,1.15
2022-08-21T18:24:53.737Z,1.20
2022-08-21T18:27:23.061Z,1.08
2022-08-21T18:29:54.728Z,1.40
2022-08-21T18:32:31.002Z,1.33
2022-08-21T18:35:01.317Z,1.10
2022-08-21T18:37:29.052Z,1.15
2022-08-21T18:39:56.369Z,1.27
2022-08-21T18:42:28.754Z,1.13
2022-08-21T18:45:00.763Z,1.20
2022-08-21T18:47:37.006Z,1.10
2022-08-21T18:50:10.640Z,1.20
2022-08-21T18:52:41.827Z,1.08
2022-08-21T18:55:21.243Z,1.20
2022-08-21T18:57:48.581Z,1.13
2022-08-21T19:00:23.394Z,0.98
2022-08-21T19:02:51.713Z,1.20
2022-08-21T19:05:20.938Z,1.33
2022-08-21T19:07:50.390Z,1.23
2022-08-21T19:10:28.139Z,1.48
2022-08-21T19:12:56.573Z,1.50
2022-08-21T19:15:24.047Z,1.35
2022-08-21T19:17:52.798Z,1.42
2022-08-21T19:20:32.767Z,1.40
2022-08-21T19:23:01.046Z,1.55
2022-08-21T19:25:32.889Z,2.30
2022-08-21T19:28:00.381Z,1.70
2022-08-21T19:30:28.842Z,1.65
2022-08-21T19:32:56.050Z,1.77
2022-08-21T19:35:23.672Z,1.67
2022-08-21T19:37:50.917Z,1.50
2022-08-21T19:40:19.628Z,1.55
2022-08-21T19:42:49.629Z,1.50
2022-08-21T19:45:16.818Z,2.00
2022-08-21T19:47:48.375Z,1.90
2022-08-21T19:50:17.952Z,1.85
2022-08-21T19:52:51.480Z,1.90
2022-08-21T19:55:35.366Z,1.90
2022-08-21T19:58:03.605Z,1.90
2022-08-21T20:00:30.455Z,1.80
2022-08-21T20:02:57.276Z,2.15
2022-08-21T20:05:24.015Z,1.67
2022-08-21T20:07:50.913Z,2.00
2022-08-21T20:10:18.740Z,1.73
2022-08-21T20:12:49.324Z,1.75
2022-08-21T20:15:20.168Z,1.90
2022-08-21T20:17:46.908Z,2.13
2022-08-21T20:20:13.801Z,2.17
2022-08-21T20:22:41.931Z,2.13
2022-08-21T20:25:09.228Z,2.63
2022-08-21T20:27:40.575Z,1.95
2022-08-21T20:30:08.833Z,2.20
2022-08-21T20:32:35.800Z,2.13
2022-08-21T20:35:03.066Z,2.00
2022-08-21T20:37:36.691Z,2.08
2022-08-21T20:40:21.019Z,1.80
2022-08-21T20:42:50.711Z,1.75
2022-08-21T20:45:31.028Z,1.60
2022-08-21T20:48:13.985Z,2.13
2022-08-21T20:50:45.993Z,1.77
2022-08-21T20:53:21.021Z,1.90
2022-08-21T20:55:50.580Z,1.70
2022-08-21T20:58:43.289Z,1.85
2022-08-21T21:01:10.401Z,2.10
2022-08-21T21:04:19.464Z,2.03
2022-08-21T21:09:46.711Z,2.10
2022-08-21T21:12:28.202Z,1.90
2022-08-21T21:14:58.123Z,2.10
2022-08-21T21:17:51.781Z,1.73
2022-08-21T21:20:28.041Z,1.55
2022-08-21T21:23:11.889Z,1.75
2022-08-21T21:25:47.037Z,1.83
2022-08-21T21:28:30.587Z,2.20
2022-08-21T21:30:57.846Z,1.90
2022-08-21T21:33:24.883Z,2.00
2022-08-21T21:35:58.990Z,1.88
2022-08-21T21:38:35.832Z,2.05
2022-08-21T21:41:20.639Z,1.70
2022-08-21T21:44:17.093Z,1.80
2022-08-21T21:47:00.742Z,1.92
2022-08-21T21:49:56.908Z,2.10
2022-08-21T21:55:29.038Z,2.30
2022-08-21T21:58:28.884Z,2.03
2022-08-21T22:01:08.541Z,2.20
2022-08-21T22:03:59.553Z,1.73
2022-08-21T22:06:35.834Z,1.98
2022-08-21T22:09:18.727Z,1.88
2022-08-21T22:12:13.661Z,2.00
2022-08-21T22:14:43.830Z,2.67
2022-08-21T22:17:28.411Z,2.20
2022-08-21T22:19:57.469Z,1.75
2022-08-21T22:22:27.035Z,1.92
2022-08-21T22:25:01.463Z,2.03
2022-08-21T22:27:34.483Z,2.30
2022-08-21T22:30:07.376Z,2.15
2022-08-21T22:35:33.282Z,2.80
2022-08-21T22:38:01.529Z,2.33
2022-08-21T22:40:34.216Z,1.98
2022-08-21T22:43:08.250Z,2.20
2022-08-21T22:45:54.221Z,2.53
2022-08-21T22:48:23.086Z,2.20
2022-08-21T22:51:29.907Z,1.90
2022-08-21T22:53:57.772Z,2.00
2022-08-21T22:56:31.902Z,2.00
2022-08-21T22:59:03.032Z,2.03
2022-08-21T23:01:35.850Z,1.85
2022-08-21T23:04:22.164Z,2.13
2022-08-21T23:06:58.208Z,2.00
2022-08-21T23:09:34.138Z,2.00
2022-08-21T23:12:21.141Z,1.83
2022-08-21T23:17:45.529Z,2.17
2022-08-21T23:20:38.017Z,2.08
2022-08-21T23:23:14.136Z,1.95
2022-08-21T23:26:07.459Z,1.88
2022-08-21T23:28:55.144Z,1.75
2022-08-21T23:31:28.080Z,2.00
2022-08-21T23:34:20.105Z,1.90
2022-08-21T23:37:49.215Z,2.05
2022-08-21T23:40:39.118Z,1.20
2022-08-21T23:43:37.429Z,1.48
2022-08-21T23:46:33.386Z,1.70
2022-08-21T23:49:31.515Z,1.38
2022-08-21T23:52:14.377Z,1.35
2022-08-21T23:54:49.940Z,1.85
2022-08-21T23:57:31.463Z,1.58
